Time;durP1;ratioP1;P1;durP2;ratioP2;P2;SDS_P1;SDS_P2;PMS_P1;PMS_P2;Temp;Humidity;BMP_temperature;BMP_pressure;BME280_temperature;BME280_humidity;BME280_pressure;Samples;Min_cycle;Max_cycle;Signal;HPM_P1;HPM_P2
2022/02/01 00:02:08;;;;;;;14.53;5.65;;;;;;;-1.00;69.30;100376.75;1750997;80;20970;-81
2022/02/01 00:04:45;;;;;;;14.68;6.10;;;;;;;-0.94;69.16;100370.69;1749762;80;21075;-80
2022/02/01 00:09:54;;;;;;;14.35;5.97;;;;;;;-0.93;68.99;100365.14;1749667;80;21550;-79
2022/02/01 00:12:33;;;;;;;15.05;6.53;;;;;;;-0.93;69.00;100366.03;1749542;81;20994;-79
2022/02/01 00:36:24;;;;;;;16.87;5.63;;;;;;;-0.88;68.94;100399.90;1749632;80;21111;-81
2022/02/01 00:38:52;;;;;;;13.30;5.50;;;;;;;-0.90;68.97;100398.53;1721613;81;21119;-81
2022/02/01 00:41:11;;;;;;;10.20;4.95;;;;;;;-0.93;69.01;100399.61;1746818;82;21010;-80
2022/02/01 00:43:37;;;;;;;11.78;5.45;;;;;;;-0.94;69.04;100400.80;1749647;81;21983;-80
2022/02/01 00:46:04;;;;;;;13.80;5.12;;;;;;;-0.94;69.11;100396.52;1719648;82;22641;-80
2022/02/01 00:48:30;;;;;;;14.30;5.62;;;;;;;-0.94;69.12;100395.23;1749801;81;21286;-80
2022/02/01 00:50:57;;;;;;;14.03;5.08;;;;;;;-0.94;69.14;100397.81;1749835;81;21092;-81
2022/02/01 00:53:29;;;;;;;12.45;5.00;;;;;;;-0.91;69.27;100409.65;1720023;83;22350;-81
2022/02/01 00:55:56;;;;;;;11.57;5.60;;;;;;;-0.88;69.33;100414.11;1750151;80;21056;-81
2022/02/01 00:58:23;;;;;;;12.15;4.80;;;;;;;-0.84;69.32;100418.70;1750174;81;21859;-81
2022/02/01 01:00:49;;;;;;;11.50;4.85;;;;;;;-0.82;69.29;100426.16;1725591;82;21053;-80
2022/02/01 01:03:16;;;;;;;10.38;4.65;;;;;;;-0.77;69.29;100430.32;1739751;81;21059;-80
2022/02/01 01:05:43;;;;;;;7.92;3.90;;;;;;;-0.72;69.30;100428.53;1718613;83;21104;-80
2022/02/01 01:08:09;;;;;;;10.75;3.77;;;;;;;-0.64;69.29;100426.06;1739545;82;21075;-80
2022/02/01 01:10:36;;;;;;;8.50;4.00;;;;;;;-0.57;69.17;100431.62;1739634;81;21746;-80
2022/02/01 01:15:58;;;;;;;10.82;4.05;;;;;;;-0.48;68.86;100422.75;1739624;81;21067;-80
2022/02/01 01:54:02;;;;;;;6.35;2.80;;;;;;;-0.52;67.51;100386.28;1739363;81;21005;-80
2022/02/01 01:56:36;;;;;;;6.47;2.95;;;;;;;-0.55;67.62;100386.96;1739797;82;21509;-80
2022/02/01 01:59:03;;;;;;;;;;;;;;;-0.52;67.75;100383.70;1742279;82;21122;-81
2022/02/01 02:01:30;;;;;;;9.73;3.17;;;;;;;-0.49;67.82;100384.78;1743733;79;20979;-80
2022/02/01 02:03:57;;;;;;;6.70;2.60;;;;;;;-0.46;67.81;100381.48;1749754;80;22223;-80
2022/02/01 02:06:24;;;;;;;7.17;2.95;;;;;;;-0.44;67.87;100376.01;1719883;83;21005;-80
2022/02/01 02:08:53;;;;;;;8.33;3.00;;;;;;;-0.42;67.85;100376.59;1749699;81;21048;-80
2022/02/01 02:11:50;;;;;;;6.75;2.52;;;;;;;-0.37;67.83;100377.30;1749865;81;21076;-80
2022/02/01 02:14:29;;;;;;;5.78;2.50;;;;;;;-0.37;67.72;100374.31;1720261;82;21051;-79
2022/02/01 02:16:54;;;;;;;5.95;2.92;;;;;;;-0.38;67.70;100373.80;1749993;80;21821;-81
2022/02/01 02:19:21;;;;;;;6.40;2.65;;;;;;;-0.39;67.80;100357.81;1719927;83;21027;-80
2022/02/01 02:21:53;;;;;;;6.95;2.42;;;;;;;-0.35;67.83;100352.02;1749794;81;21033;-81
2022/02/01 02:24:21;;;;;;;5.03;2.17;;;;;;;-0.34;67.76;100345.15;1750209;81;21193;-82
2022/02/01 02:26:52;;;;;;;5.05;2.50;;;;;;;-0.34;67.82;100339.98;1720040;83;21055;-81
2022/02/01 02:29:16;;;;;;;4.12;2.27;;;;;;;-0.33;67.83;100340.08;1749278;80;21785;-81
2022/02/01 02:31:43;;;;;;;6.35;2.47;;;;;;;-0.31;67.77;100344.94;1749884;81;21044;-82
2022/02/01 02:34:13;;;;;;;6.12;2.67;;;;;;;-0.32;67.72;100340.59;1719956;82;21035;-81
2022/02/01 02:36:47;;;;;;;7.92;2.40;;;;;;;-0.33;67.65;100344.36;1749332;82;21060;-81
2022/02/01 02:41:53;;;;;;;6.62;2.42;;;;;;;-0.43;67.60;100330.86;1719752;82;22520;-81
2022/02/01 02:47:05;;;;;;;7.58;2.72;;;;;;;-0.56;67.59;100328.31;1719680;83;21005;-80
2022/02/01 02:49:32;;;;;;;5.80;2.45;;;;;;;-0.64;67.57;100325.26;1749850;81;21784;-80
2022/02/01 02:51:59;;;;;;;6.28;2.45;;;;;;;-0.69;67.62;100320.59;1749896;80;21071;-81
2022/02/01 02:54:27;;;;;;;5.85;2.30;;;;;;;-0.73;67.73;100333.72;1719913;82;21750;-81
2022/02/01 02:57:02;;;;;;;4.12;2.20;;;;;;;-0.77;67.78;100338.58;1749737;80;21040;-80
2022/02/01 02:59:29;;;;;;;5.08;1.92;;;;;;;-0.82;67.81;100339.59;1749740;81;21006;-81
2022/02/01 03:01:56;;;;;;;5.97;2.08;;;;;;;-0.87;67.85;100337.99;1699763;82;21532;-81
2022/02/01 03:04:29;;;;;;;8.43;2.17;;;;;;;-0.93;67.92;100335.44;1739054;80;21077;-81
2022/02/01 03:06:56;;;;;;;9.70;2.27;;;;;;;-0.97;68.00;100336.03;1769938;81;21907;-80
2022/02/01 03:09:23;;;;;;;7.60;2.30;;;;;;;-1.01;68.03;100334.95;1770026;81;21088;-80
2022/02/01 03:11:54;;;;;;;5.85;2.12;;;;;;;-1.07;68.14;100337.11;1770140;81;21066;-80
2022/02/01 03:14:26;;;;;;;3.10;1.70;;;;;;;-1.08;68.21;100343.09;1740405;82;21706;-80
2022/02/01 03:17:07;;;;;;;6.03;2.10;;;;;;;-1.08;68.39;100340.09;1741013;82;21176;-80
2022/02/01 03:22:07;;;;;;;6.08;2.27;;;;;;;-1.05;68.56;100353.59;1770085;81;22412;-81
2022/02/01 03:24:34;;;;;;;4.47;2.08;;;;;;;-1.04;68.66;100354.11;1770490;80;21065;-81
2022/02/01 03:27:01;;;;;;;6.22;2.05;;;;;;;-1.04;68.65;100354.99;1770347;80;20995;-81
2022/02/01 03:29:28;;;;;;;4.62;1.42;;;;;;;-1.05;68.69;100356.18;1770345;80;21081;-81
2022/02/01 03:31:54;;;;;;;7.05;2.22;;;;;;;-1.06;68.73;100360.46;1738245;82;21920;-80
2022/02/01 03:34:21;;;;;;;4.72;2.00;;;;;;;-1.09;68.76;100355.12;1740817;82;21117;-81
2022/02/01 03:36:48;;;;;;;6.40;2.50;;;;;;;-1.10;68.82;100362.35;1770270;80;21063;-81
2022/02/01 03:39:15;;;;;;;5.03;2.20;;;;;;;-1.13;68.89;100358.27;1770325;81;20983;-81
2022/02/01 03:41:45;;;;;;;9.93;2.22;;;;;;;-1.13;68.97;100360.85;1770454;80;21148;-81
2022/02/01 03:44:12;;;;;;;5.20;2.00;;;;;;;-1.12;69.08;100369.11;1770504;80;21784;-81
2022/02/01 03:46:53;;;;;;;4.72;2.35;;;;;;;-1.13;69.08;100360.85;1770308;81;21567;-80
2022/02/01 03:49:08;;;;;;;7.55;2.65;;;;;;;-1.11;69.19;100365.72;1771761;79;21058;-80
2022/02/01 03:51:35;;;;;;;5.42;2.25;;;;;;;-1.10;69.24;100361.06;1770530;81;21070;-80
2022/02/01 03:54:02;;;;;;;5.92;2.50;;;;;;;-1.09;69.29;100363.23;1770372;81;21216;-81
2022/02/01 03:56:29;;;;;;;6.28;2.55;;;;;;;-1.08;69.28;100360.77;1737697;82;21770;-81
2022/02/01 03:58:56;;;;;;;6.03;2.92;;;;;;;-1.07;69.35;100356.48;1740940;82;21757;-80
2022/02/01 04:01:22;;;;;;;7.67;2.55;;;;;;;-1.06;69.37;100354.41;1741019;82;21046;-80
2022/02/01 04:03:49;;;;;;;5.97;2.80;;;;;;;-1.06;69.39;100358.28;1778211;80;21031;-81
2022/02/01 04:06:16;;;;;;;6.92;2.47;;;;;;;-1.06;69.44;100360.46;1778544;80;21050;-81
2022/02/01 04:08:44;;;;;;;7.42;2.72;;;;;;;-1.06;69.47;100363.45;1778629;80;21733;-81
2022/02/01 04:11:11;;;;;;;6.00;2.70;;;;;;;-1.08;69.54;100362.05;1778498;80;21046;-81
2022/02/01 04:13:38;;;;;;;5.20;2.62;;;;;;;-1.10;69.52;100361.06;1778502;80;21101;-81
2022/02/01 04:16:05;;;;;;;6.92;2.83;;;;;;;-1.13;69.57;100365.13;1778151;80;21057;-81
2022/02/01 04:18:32;;;;;;;7.42;2.90;;;;;;;-1.15;69.63;100363.73;1746375;82;21039;-80
2022/02/01 04:20:59;;;;;;;9.05;2.52;;;;;;;-1.16;69.74;100367.13;1778011;80;21744;-79
2022/02/01 04:23:26;;;;;;;6.42;2.47;;;;;;;-1.17;69.80;100357.58;1745692;81;20995;-79
2022/02/01 04:25:53;;;;;;;6.83;3.15;;;;;;;-1.15;69.88;100360.27;1746150;82;21081;-81
2022/02/01 04:28:19;;;;;;;7.08;2.30;;;;;;;-1.13;69.90;100358.67;1778119;79;21125;-80
2022/02/01 04:30:46;;;;;;;6.85;2.22;;;;;;;-1.10;69.93;100350.73;1754690;80;21082;-80
2022/02/01 04:33:12;;;;;;;2.98;1.77;;;;;;;-1.07;69.95;100348.36;1710557;83;22705;-80
2022/02/01 04:35:40;;;;;;;5.83;2.22;;;;;;;-1.04;69.91;100353.70;1710654;83;21020;-80
2022/02/01 04:38:08;;;;;;;7.80;2.22;;;;;;;-1.02;69.91;100356.39;1710689;83;21648;-80
2022/02/01 04:40:34;;;;;;;7.47;2.42;;;;;;;-1.01;69.94;100353.91;1710784;83;21071;-80
2022/02/01 04:43:03;;;;;;;6.72;2.20;;;;;;;-0.96;69.96;100354.59;1710963;83;21060;-80
2022/02/01 04:45:30;;;;;;;3.90;2.10;;;;;;;-0.94;69.99;100352.59;1712030;83;21760;-80
2022/02/01 04:47:57;;;;;;;7.20;2.12;;;;;;;-0.92;69.98;100348.83;1728733;82;21069;-80
2022/02/01 04:50:26;;;;;;;7.03;2.05;;;;;;;-0.90;70.00;100332.65;1729043;81;21125;-80
2022/02/01 04:52:54;;;;;;;6.30;2.58;;;;;;;-0.87;70.02;100334.52;1729134;82;21105;-83
2022/02/01 04:55:23;;;;;;;6.85;2.60;;;;;;;-0.85;70.03;100327.35;1725891;82;21034;-82
2022/02/01 04:57:56;;;;;;;8.18;2.42;;;;;;;-0.82;70.05;100318.92;1754028;80;21822;-84
2022/02/01 05:00:28;;;;;;;7.97;2.50;;;;;;;-0.81;70.04;100314.23;1759919;80;21110;-83
2022/02/01 05:03:00;;;;;;;11.75;3.40;;;;;;;-0.80;70.02;100306.98;1707467;81;21363;-83
2022/02/01 05:05:29;;;;;;;9.78;5.10;;;;;;;-0.78;70.04;100300.22;1709402;82;21784;-83
2022/02/01 05:08:01;;;;;;;6.03;2.75;;;;;;;-0.76;70.07;100296.04;1698445;84;21071;-84
2022/02/01 05:10:29;;;;;;;9.25;3.20;;;;;;;-0.73;70.06;100293.66;1696550;83;22539;-85
2022/02/01 05:13:18;;;;;;;8.08;2.52;;;;;;;-0.73;70.05;100294.95;1694772;83;21070;-86
2022/02/01 05:15:24;;;;;;;7.72;2.55;;;;;;;-0.73;70.02;100299.20;1662530;83;21101;-85
2022/02/01 05:17:55;;;;;;;7.83;2.92;;;;;;;-0.73;70.04;100298.83;1665871;85;21075;-86
2022/02/01 05:20:29;;;;;;;9.10;2.80;;;;;;;-0.72;70.05;100301.01;1668882;85;21075;-84
2022/02/01 05:22:53;;;;;;;6.78;2.80;;;;;;;-0.72;70.09;100301.89;1667744;85;22619;-85
2022/02/01 05:25:26;;;;;;;7.03;2.75;;;;;;;-0.72;70.13;100304.47;1668029;85;21098;-85
2022/02/01 05:27:50;;;;;;;9.28;2.90;;;;;;;-0.69;70.20;100311.14;1667888;85;21083;-85
2022/02/01 05:30:16;;;;;;;11.80;3.17;;;;;;;-0.67;70.17;100309.55;1668550;84;21095;-85
2022/02/01 05:32:43;;;;;;;6.20;3.10;;;;;;;-0.65;70.22;100308.35;1668584;84;21102;-85
2022/02/01 05:35:11;;;;;;;9.23;3.35;;;;;;;-0.66;70.19;100307.84;1647021;85;21110;-83
2022/02/01 05:37:39;;;;;;;7.17;3.17;;;;;;;-0.66;70.21;100315.59;1668672;85;21051;-81
2022/02/01 05:40:08;;;;;;;9.78;3.85;;;;;;;-0.66;70.25;100313.93;1668813;84;21099;-82
2022/02/01 05:43:16;;;;;;;9.83;3.05;;;;;;;-0.65;70.28;100318.28;1668836;84;21083;-88
2022/02/01 05:45:13;;;;;;;11.95;3.20;;;;;;;-0.66;70.28;100316.89;1662236;84;21074;-86
2022/02/01 05:47:40;;;;;;;9.50;3.30;;;;;;;-0.66;70.30;100320.77;1666633;83;21779;-87
2022/02/01 05:50:08;;;;;;;9.60;3.10;;;;;;;-0.67;70.33;100325.45;1645372;85;21937;-86
2022/02/01 05:52:35;;;;;;;8.40;4.08;;;;;;;-0.66;70.40;100325.94;1666610;85;22267;-87
2022/02/01 05:55:04;;;;;;;12.50;4.15;;;;;;;-0.67;70.50;100322.47;1666132;84;21090;-87
2022/02/01 05:57:30;;;;;;;13.05;4.92;;;;;;;-0.64;70.71;100324.34;1666690;84;21074;-81
2022/02/01 05:59:57;;;;;;;12.05;4.72;;;;;;;-0.64;70.57;100323.96;1666711;84;21783;-81
2022/02/01 06:02:24;;;;;;;14.80;4.87;;;;;;;-0.64;70.56;100335.59;1672408;83;21222;-81
2022/02/01 06:04:51;;;;;;;11.30;3.92;;;;;;;-0.61;70.75;100335.77;1705279;84;21087;-80
2022/02/01 06:07:17;;;;;;;8.93;4.17;;;;;;;-0.59;70.70;100336.75;1706075;83;21107;-80
2022/02/01 06:09:44;;;;;;;9.65;3.70;;;;;;;-0.57;70.64;100334.68;1704659;83;21079;-81
2022/02/01 06:12:11;;;;;;;11.75;3.85;;;;;;;-0.56;70.68;100336.45;1705325;84;23095;-80
2022/02/01 06:14:37;;;;;;;10.05;3.83;;;;;;;-0.54;70.72;100331.89;1706340;82;21078;-80
2022/02/01 06:17:05;;;;;;;8.40;3.65;;;;;;;-0.52;70.77;100334.58;1705395;83;21083;-80
2022/02/01 06:19:32;;;;;;;6.62;3.80;;;;;;;-0.50;70.73;100332.56;1704811;83;21816;-81
2022/02/01 06:21:59;;;;;;;10.20;4.20;;;;;;;-0.50;70.69;100333.86;1704705;83;21099;-80
2022/02/01 06:24:26;;;;;;;11.53;4.25;;;;;;;-0.51;70.70;100333.34;1704687;83;21735;-84
2022/02/01 06:26:55;;;;;;;11.97;4.05;;;;;;;-0.48;70.75;100328.79;1704996;83;21330;-83
2022/02/01 06:29:22;;;;;;;10.58;4.25;;;;;;;-0.49;70.71;100333.08;1704939;83;21182;-83
2022/02/01 06:31:49;;;;;;;10.50;3.67;;;;;;;-0.47;70.78;100331.85;1704962;83;21053;-83
2022/02/01 06:34:15;;;;;;;8.98;4.03;;;;;;;-0.46;70.85;100328.08;1705376;83;21095;-83
2022/02/01 06:36:42;;;;;;;9.58;3.27;;;;;;;-0.42;70.95;100326.17;1705360;84;22168;-83
2022/02/01 06:39:09;;;;;;;7.08;2.98;;;;;;;-0.40;70.85;100326.27;1705228;84;21100;-83
2022/02/01 06:41:36;;;;;;;10.00;3.72;;;;;;;-0.40;70.87;100323.68;1705321;83;21672;-83
2022/02/01 06:44:05;;;;;;;7.85;3.42;;;;;;;-0.40;70.89;100327.16;1705153;83;21096;-83
2022/02/01 06:46:32;;;;;;;6.78;3.22;;;;;;;-0.38;70.93;100327.66;1705113;82;21053;-83
2022/02/01 06:48:59;;;;;;;7.37;3.60;;;;;;;-0.37;70.91;100332.05;1704890;84;22456;-83
2022/02/01 06:51:27;;;;;;;7.92;3.37;;;;;;;-0.37;70.89;100333.34;1704969;83;21120;-83
2022/02/01 06:53:56;;;;;;;5.90;3.42;;;;;;;-0.36;70.98;100328.23;1705156;83;21115;-83
2022/02/01 06:56:30;;;;;;;8.95;3.87;;;;;;;-0.34;71.04;100325.34;1683579;84;21080;-83
2022/02/01 06:58:57;;;;;;;;;;;;;;;-0.30;71.04;100326.43;1707810;83;21089;-82
2022/02/01 07:01:24;;;;;;;7.90;3.42;;;;;;;-0.30;71.02;100322.17;1705310;83;21704;-83
2022/02/01 07:03:51;;;;;;;9.93;4.22;;;;;;;-0.26;71.09;100321.55;1705075;83;21604;-83
2022/02/01 07:06:18;;;;;;;10.32;5.28;;;;;;;-0.25;71.05;100314.27;1704922;83;21605;-83
2022/02/01 07:08:46;;;;;;;20.62;10.25;;;;;;;-0.20;71.09;100310.69;1705142;84;21088;-83
2022/02/01 07:11:13;;;;;;;32.13;17.20;;;;;;;-0.18;71.04;100311.67;1705111;83;21104;-83
2022/02/01 07:13:40;;;;;;;17.50;8.43;;;;;;;-0.16;71.06;100311.77;1705147;83;21848;-83
2022/02/01 07:16:07;;;;;;;40.80;19.67;;;;;;;-0.12;71.06;100308.56;1705024;83;21346;-83
2022/02/01 07:18:34;;;;;;;14.07;7.85;;;;;;;-0.10;70.96;100303.96;1705153;83;21072;-83
2022/02/01 07:21:01;;;;;;;47.60;26.55;;;;;;;-0.10;70.93;100303.96;1705163;84;21831;-83
2022/02/01 07:23:27;;;;;;;31.45;14.10;;;;;;;-0.10;70.92;100296.20;1704928;83;21084;-83
2022/02/01 07:25:57;;;;;;;38.00;22.58;;;;;;;-0.06;70.99;100293.40;1705102;84;22580;-83
2022/02/01 07:28:25;;;;;;;34.38;20.32;;;;;;;-0.03;70.94;100289.72;1704976;83;21559;-83
2022/02/01 07:30:56;;;;;;;46.37;27.32;;;;;;;-0.03;70.87;100292.30;1705128;83;21589;-83
2022/02/01 07:33:21;;;;;;;45.85;29.35;;;;;;;-0.03;70.82;100289.31;1704821;83;21132;-83
2022/02/01 07:35:48;;;;;;;65.97;42.95;;;;;;;-0.04;70.79;100287.91;1705229;83;21061;-83
2022/02/01 07:38:21;;;;;;;40.28;25.77;;;;;;;-0.02;70.83;100291.48;1705132;83;21733;-83
2022/02/01 07:40:47;;;;;;;64.00;36.48;;;;;;;-0.02;70.83;100285.02;1704961;83;21304;-83
2022/02/01 07:43:14;;;;;;;30.77;23.12;;;;;;;-0.01;70.80;100284.23;1705079;84;21648;-83
2022/02/01 07:45:42;;;;;;;19.77;12.58;;;;;;;0.01;70.86;100275.27;1705263;84;22250;-83
2022/02/01 07:48:11;;;;;;;57.65;38.17;;;;;;;0.05;70.93;100274.23;1704833;83;21668;-83
2022/02/01 07:50:39;;;;;;;51.48;35.80;;;;;;;0.14;71.02;100281.66;1705383;84;22561;-83
2022/02/01 07:53:07;;;;;;;46.42;29.63;;;;;;;0.19;70.99;100275.95;1705151;83;21017;-83
2022/02/01 07:55:34;;;;;;;37.48;23.15;;;;;;;0.30;71.03;100275.67;1705430;84;21071;-83
2022/02/01 07:58:01;;;;;;;17.35;10.08;;;;;;;0.41;71.04;100265.53;1704946;83;21566;-83
2022/02/01 08:00:28;;;;;;;32.67;17.27;;;;;;;0.53;71.00;100261.48;1705338;83;21064;-83
2022/02/01 08:02:55;;;;;;;43.30;22.27;;;;;;;0.61;70.92;100257.62;1705234;83;22701;-83
2022/02/01 08:05:25;;;;;;;35.03;20.45;;;;;;;0.66;70.79;100261.78;1705113;83;21100;-83
2022/02/01 08:07:56;;;;;;;22.70;8.60;;;;;;;0.70;70.66;100262.44;1704345;83;21072;-83
2022/02/01 08:10:25;;;;;;;145.22;68.15;;;;;;;0.69;70.57;100258.94;1705219;83;21076;-83
2022/02/01 08:20:42;;;;;;;327.32;147.78;;;;;;;0.82;70.46;100263.11;1705443;83;21139;-83
2022/02/01 08:23:03;;;;;;;61.95;41.98;;;;;;;0.92;70.51;100261.92;1704146;84;21499;-83
2022/02/01 08:25:31;;;;;;;62.85;52.20;;;;;;;1.06;70.53;100265.30;1705416;84;21064;-83
2022/02/01 08:28:00;;;;;;;37.95;27.25;;;;;;;1.18;70.49;100264.65;1705289;84;21786;-83
2022/02/01 08:30:28;;;;;;;41.02;28.60;;;;;;;1.29;70.35;100258.77;1705156;83;21128;-83
2022/02/01 08:32:54;;;;;;;76.67;66.92;;;;;;;1.39;70.31;100257.17;1705073;84;21084;-83
2022/02/01 08:35:21;;;;;;;22.17;17.25;;;;;;;1.47;70.24;100253.27;1704973;83;21688;-83
2022/02/01 08:37:48;;;;;;;13.88;7.80;;;;;;;1.52;70.00;100247.93;1705113;83;21135;-83
2022/02/01 08:40:16;;;;;;;18.23;8.98;;;;;;;1.54;69.96;100248.91;1705167;84;21741;-83
2022/02/01 08:42:43;;;;;;;13.40;6.85;;;;;;;1.59;69.96;100246.53;1705092;83;21076;-83
2022/02/01 08:45:13;;;;;;;13.80;9.60;;;;;;;1.65;69.85;100239.09;1705086;84;21104;-83
2022/02/01 08:47:40;;;;;;;26.40;17.60;;;;;;;1.70;69.72;100232.84;1705211;83;21013;-83
2022/02/01 08:50:07;;;;;;;28.17;15.50;;;;;;;1.70;69.56;100229.83;1705091;83;21110;-83
2022/02/01 08:52:43;;;;;;;18.32;12.68;;;;;;;1.74;69.60;100229.58;1705001;84;21758;-83
2022/02/01 08:55:07;;;;;;;30.30;21.97;;;;;;;1.82;69.51;100224.41;1704161;83;21096;-83
2022/02/01 08:57:34;;;;;;;16.87;10.10;;;;;;;1.87;69.45;100226.80;1705244;84;21064;-83
2022/02/01 09:00:11;;;;;;;12.05;7.80;;;;;;;1.94;69.42;100230.20;1705040;84;21083;-83
2022/02/01 09:02:35;;;;;;;26.75;18.70;;;;;;;2.04;69.34;100225.07;1704925;84;21108;-83
2022/02/01 09:05:01;;;;;;;21.07;11.15;;;;;;;2.08;69.09;100227.03;1704942;83;21740;-84
2022/02/01 09:07:28;;;;;;;18.57;12.90;;;;;;;2.09;68.97;100218.83;1683312;84;21389;-84
2022/02/01 09:09:55;;;;;;;13.75;8.93;;;;;;;2.11;68.85;100217.20;1705313;83;21056;-84
2022/02/01 09:12:22;;;;;;;14.53;6.50;;;;;;;2.12;68.68;100215.98;1705308;83;21084;-83
2022/02/01 09:14:49;;;;;;;9.83;5.78;;;;;;;2.14;68.56;100215.65;1705179;83;21060;-84
2022/02/01 09:17:16;;;;;;;13.95;6.37;;;;;;;2.14;68.49;100206.98;1704957;84;21208;-83
2022/02/01 09:19:43;;;;;;;12.85;6.10;;;;;;;2.16;68.51;100214.44;1705123;83;21120;-83
2022/02/01 09:22:12;;;;;;;11.10;4.85;;;;;;;2.20;68.45;100205.09;1705210;83;21177;-83
2022/02/01 09:24:41;;;;;;;11.28;5.87;;;;;;;2.22;68.33;100197.84;1704605;82;21593;-84
2022/02/01 09:27:09;;;;;;;10.35;6.20;;;;;;;2.23;68.17;100200.03;1705283;83;21598;-84
2022/02/01 09:29:36;;;;;;;10.53;6.58;;;;;;;2.22;68.11;100190.48;1705097;83;21769;-84
2022/02/01 09:32:03;;;;;;;10.58;6.47;;;;;;;2.23;68.05;100200.91;1705110;83;21152;-84
2022/02/01 09:34:30;;;;;;;21.12;11.63;;;;;;;2.23;68.02;100193.54;1705045;83;21370;-84
2022/02/01 09:36:57;;;;;;;15.10;10.95;;;;;;;2.24;67.97;100196.63;1705000;83;21084;-83
2022/02/01 09:39:24;;;;;;;22.60;13.28;;;;;;;2.19;67.78;100194.20;1683055;84;21562;-83
2022/02/01 09:41:51;;;;;;;20.32;12.35;;;;;;;2.09;67.69;100192.87;1705235;83;22508;-84
2022/02/01 09:44:19;;;;;;;20.92;9.98;;;;;;;2.02;67.73;100192.95;1683034;84;21617;-84
2022/02/01 09:46:49;;;;;;;18.23;10.70;;;;;;;2.01;67.84;100186.00;1705278;83;21045;-84
2022/02/01 09:49:16;;;;;;;17.12;9.08;;;;;;;2.03;67.92;100183.48;1683464;84;21037;-84
2022/02/01 09:51:45;;;;;;;15.23;5.85;;;;;;;2.16;68.16;100182.36;1705171;84;21123;-83
2022/02/01 09:54:12;;;;;;;11.28;4.92;;;;;;;2.29;68.11;100174.35;1705166;83;21763;-83
2022/02/01 09:56:38;;;;;;;12.60;5.67;;;;;;;2.39;68.00;100174.42;1705176;83;21652;-82
2022/02/01 09:59:17;;;;;;;11.93;6.00;;;;;;;2.45;67.95;100169.09;1704993;84;21075;-83
2022/02/01 10:01:46;;;;;;;14.38;5.90;;;;;;;2.49;67.86;100167.12;1704824;84;21568;-83
2022/02/01 10:04:13;;;;;;;12.30;5.03;;;;;;;2.54;67.75;100158.27;1712366;83;21083;-83
2022/02/01 10:06:40;;;;;;;12.80;5.22;;;;;;;2.56;67.62;100162.23;1725168;83;22012;-83
2022/02/01 10:09:10;;;;;;;10.93;5.17;;;;;;;2.57;67.55;100161.41;1694820;84;21101;-84
2022/02/01 10:11:40;;;;;;;24.52;12.43;;;;;;;2.60;67.65;100156.36;1714961;83;21077;-84
2022/02/01 10:14:08;;;;;;;40.95;18.85;;;;;;;2.68;67.70;100149.81;1695526;83;21059;-84
2022/02/01 10:16:44;;;;;;;32.05;19.02;;;;;;;2.79;67.49;100143.40;1715082;83;21040;-84
2022/02/01 10:19:12;;;;;;;17.67;7.67;;;;;;;2.80;67.42;100132.20;1696473;84;23602;-83
2022/02/01 10:21:55;;;;;;;11.28;6.08;;;;;;;2.88;67.45;100110.03;1725623;83;21557;-83
2022/02/01 10:24:30;;;;;;;13.72;6.08;;;;;;;2.96;67.38;100114.28;1725583;82;21102;-83
2022/02/01 10:27:21;;;;;;;11.73;6.30;;;;;;;3.01;67.33;100093.70;1715229;83;21104;-84
2022/02/01 10:30:10;;;;;;;28.12;14.13;;;;;;;3.00;67.07;100100.59;1694217;84;21050;-84
2022/02/01 10:32:50;;;;;;;12.23;6.37;;;;;;;2.91;66.89;100097.19;1713955;83;21794;-84
2022/02/01 10:38:09;;;;;;;15.35;7.80;;;;;;;3.00;67.32;100078.91;1714970;83;21098;-83
2022/02/01 10:40:45;;;;;;;33.67;16.15;;;;;;;3.08;67.19;100078.44;1694986;84;21074;-83
2022/02/01 10:43:19;;;;;;;11.28;5.97;;;;;;;3.12;67.09;100076.86;1714984;83;21087;-83
2022/02/01 10:45:47;;;;;;;14.80;6.87;;;;;;;3.05;66.87;100076.99;1695131;84;21757;-83
2022/02/01 10:48:15;;;;;;;11.97;5.78;;;;;;;2.98;67.03;100063.23;1715072;83;21048;-83
2022/02/01 10:50:41;;;;;;;12.25;5.80;;;;;;;2.90;67.48;100062.90;1695255;83;21157;-83
2022/02/01 10:53:20;;;;;;;11.95;6.22;;;;;;;2.90;67.85;100048.60;1714996;83;21064;-83
2022/02/01 10:55:47;;;;;;;11.48;5.72;;;;;;;2.87;68.01;100042.38;1725386;81;21054;-83
2022/02/01 10:58:15;;;;;;;10.90;4.67;;;;;;;2.86;68.07;100037.59;1725649;81;21803;-83
2022/02/01 11:00:43;;;;;;;12.20;5.60;;;;;;;2.83;68.17;100034.85;1725589;83;21061;-83
2022/02/01 11:03:12;;;;;;;13.75;5.83;;;;;;;2.80;68.28;100033.44;1725837;81;21022;-83
2022/02/01 11:05:48;;;;;;;13.62;5.65;;;;;;;2.83;68.42;100035.27;1710308;83;21090;-83
2022/02/01 11:08:26;;;;;;;11.97;4.85;;;;;;;2.92;68.67;100019.66;1707603;83;21094;-84
2022/02/01 11:10:51;;;;;;;13.53;5.97;;;;;;;3.09;68.69;100016.91;1706943;84;22748;-84
2022/02/01 11:13:17;;;;;;;10.95;5.47;;;;;;;3.18;68.66;100014.71;1707793;83;21086;-83
2022/02/01 11:16:07;;;;;;;15.13;6.25;;;;;;;3.31;68.69;100007.91;1708042;83;21063;-84
2022/02/01 11:18:31;;;;;;;13.43;4.70;;;;;;;3.44;68.50;100000.20;1707414;83;21044;-83
2022/02/01 11:21:11;;;;;;;11.03;4.92;;;;;;;3.50;68.09;99999.14;1707827;84;21590;-84
2022/02/01 11:23:49;;;;;;;11.10;4.95;;;;;;;3.49;67.88;99989.97;1707871;83;21781;-82
2022/02/01 11:26:50;;;;;;;15.95;6.47;;;;;;;3.49;67.77;99987.37;1707820;83;21635;-83
2022/02/01 11:31:59;;;;;;;17.80;8.10;;;;;;;3.42;67.68;99976.27;1683301;84;21125;-84
2022/02/01 11:34:31;;;;;;;17.37;9.70;;;;;;;3.22;67.35;99978.91;1708134;83;21106;-83
2022/02/01 11:37:10;;;;;;;15.10;9.03;;;;;;;3.08;67.52;99964.45;1708160;83;21841;-83
2022/02/01 11:39:50;;;;;;;19.15;11.65;;;;;;;2.96;67.73;99966.09;1708158;83;21591;-84
2022/02/01 11:42:18;;;;;;;23.02;13.90;;;;;;;2.87;68.00;99958.81;1708255;84;21097;-84
2022/02/01 11:44:44;;;;;;;28.05;12.93;;;;;;;2.84;68.18;99956.07;1708410;84;21047;-84
2022/02/01 11:47:20;;;;;;;20.02;13.38;;;;;;;2.76;68.28;99947.45;1708285;84;21701;-83
2022/02/01 11:50:00;;;;;;;22.30;13.08;;;;;;;2.72;68.65;99946.04;1708131;84;22653;-84
2022/02/01 11:52:27;;;;;;;21.40;13.15;;;;;;;2.71;68.70;99932.98;1706223;84;21611;-83
2022/02/01 11:55:08;;;;;;;22.02;13.28;;;;;;;2.71;68.92;99920.86;1708001;84;21062;-84
2022/02/01 11:57:37;;;;;;;21.10;11.48;;;;;;;2.68;68.97;99918.55;1707977;83;21091;-84
2022/02/01 12:00:14;;;;;;;17.45;9.88;;;;;;;2.65;69.12;99914.11;1707637;83;21110;-84
2022/02/01 12:02:49;;;;;;;16.02;9.73;;;;;;;2.58;69.23;99911.19;1679347;84;40275;-83
2022/02/01 12:05:34;;;;;;;18.45;9.90;;;;;;;2.55;69.29;99909.74;1707064;82;21015;-84
2022/02/01 12:08:13;;;;;;;25.45;13.35;;;;;;;2.48;69.28;99908.19;1707847;83;21008;-83
2022/02/01 12:10:46;;;;;;;29.75;14.80;;;;;;;2.38;69.42;99902.52;1708063;83;21011;-83
2022/02/01 12:13:15;;;;;;;23.20;13.83;;;;;;;2.29;69.75;99890.91;1708141;84;21603;-83
2022/02/01 12:15:43;;;;;;;25.20;14.28;;;;;;;2.25;69.96;99883.81;1707940;84;21760;-84
2022/02/01 12:18:46;;;;;;;19.60;10.43;;;;;;;2.23;70.03;99885.42;1707964;84;21596;-84
2022/02/01 12:21:37;;;;;;;21.02;12.68;;;;;;;2.22;70.14;99876.30;1707267;84;21059;-84
2022/02/01 12:24:05;;;;;;;19.98;11.30;;;;;;;2.17;70.26;99873.89;1707919;84;21610;-83
2022/02/01 12:26:38;;;;;;;23.83;13.83;;;;;;;2.14;70.19;99870.34;1707893;83;21714;-83
2022/02/01 12:29:07;;;;;;;15.90;8.73;;;;;;;2.09;70.26;99863.17;1707808;84;22590;-83
2022/02/01 12:31:39;;;;;;;23.20;16.93;;;;;;;2.03;70.38;99862.91;1707600;84;21079;-83
2022/02/01 12:34:12;;;;;;;26.95;13.48;;;;;;;1.99;70.49;99851.88;1707741;84;21089;-83
2022/02/01 12:36:54;;;;;;;15.58;9.48;;;;;;;1.95;70.50;99841.77;1707965;84;21159;-83
2022/02/01 12:39:32;;;;;;;21.85;11.78;;;;;;;1.83;70.69;99822.66;1706162;83;21015;-83
2022/02/01 12:47:23;;;;;;;15.93;7.80;;;;;;;1.98;71.23;99815.97;1707789;84;21102;-83
2022/02/01 12:49:53;;;;;;;16.10;7.45;;;;;;;1.99;71.21;99811.66;1707789;84;21266;-83
2022/02/01 12:52:28;;;;;;;15.00;7.30;;;;;;;2.04;71.39;99811.03;1689419;83;21093;-83
2022/02/01 12:55:01;;;;;;;15.63;7.97;;;;;;;2.11;71.43;99814.38;1707854;83;21947;-83
2022/02/01 12:57:29;;;;;;;13.80;8.07;;;;;;;2.19;71.54;99802.16;1707941;84;21717;-83
2022/02/01 13:00:00;;;;;;;14.05;6.67;;;;;;;2.26;71.48;99795.11;1707945;84;21778;-83
2022/02/01 13:02:29;;;;;;;15.25;7.95;;;;;;;2.31;71.33;99781.50;1708004;84;21582;-83
2022/02/01 13:05:02;;;;;;;16.57;7.30;;;;;;;2.33;71.24;99775.95;1708194;83;21677;-83